Time;durP1;ratioP1;P1;durP2;ratioP2;P2;SDS_P1;SDS_P2;PMS_P1;PMS_P2;Temp;Humidity;BMP_temperature;BMP_pressure;BME280_temperature;BME280_humidity;BME280_pressure;Samples;Min_cycle;Max_cycle;Signal;HPM_P1;HPM_P2
2023/09/21 00:01:38;;;;;;;0.20;0.20;;;;;;;17.08;60.50;99791.97;5064786;28;20059;-71
2023/09/21 00:04:07;;;;;;;0.20;0.20;;;;;;;17.11;61.16;99793.28;5096601;28;20145;-69
2023/09/21 00:06:33;;;;;;;0.20;0.20;;;;;;;17.14;60.76;99795.41;5097878;28;20461;-69
2023/09/21 00:08:59;;;;;;;0.20;0.20;;;;;;;17.16;61.37;99798.66;5061941;28;20425;-69
2023/09/21 00:11:26;;;;;;;0.20;0.20;;;;;;;17.18;60.79;99803.88;5074970;28;20109;-70
2023/09/21 00:13:52;;;;;;;0.20;0.20;;;;;;;17.13;61.50;99805.63;5096346;28;20048;-70
2023/09/21 00:16:19;;;;;;;0.20;0.20;;;;;;;17.09;61.82;99790.84;5077945;28;20460;-70
2023/09/21 00:18:46;;;;;;;0.20;0.20;;;;;;;17.07;62.10;99798.63;5039006;28;20044;-70
2023/09/21 00:21:14;;;;;;;0.20;0.20;;;;;;;17.06;61.85;99793.41;5065970;28;20059;-70
2023/09/21 00:23:40;;;;;;;0.20;0.20;;;;;;;17.03;61.93;99796.81;5095308;28;20461;-70
2023/09/21 00:26:08;;;;;;;0.20;0.20;;;;;;;17.01;62.23;99806.22;5076096;28;20043;-69
2023/09/21 00:28:35;;;;;;;0.20;0.20;;;;;;;16.97;62.35;99805.22;5061517;28;20074;-70
2023/09/21 00:31:02;;;;;;;0.20;0.20;;;;;;;16.95;62.43;99804.72;5052397;28;20447;-69
2023/09/21 00:33:30;;;;;;;0.25;0.25;;;;;;;16.94;62.80;99814.13;5095723;28;20455;-70
2023/09/21 00:35:58;;;;;;;0.20;0.20;;;;;;;16.92;63.04;99802.56;5079087;28;20062;-70
2023/09/21 00:38:26;;;;;;;0.20;0.20;;;;;;;16.97;63.05;99826.47;5083496;28;20070;-72
2023/09/21 00:40:57;;;;;;;0.20;0.20;;;;;;;16.92;63.13;99821.09;5081800;28;20051;-70
2023/09/21 00:43:24;;;;;;;0.20;0.20;;;;;;;16.91;63.53;99817.50;5091614;28;20164;-71
2023/09/21 00:45:57;;;;;;;0.20;0.20;;;;;;;16.89;63.34;99797.69;5074433;28;20326;-71
2023/09/21 00:48:26;;;;;;;0.20;0.20;;;;;;;16.86;63.42;99810.22;5075831;28;20043;-71
2023/09/21 00:50:57;;;;;;;0.20;0.20;;;;;;;16.87;64.02;99811.00;5078584;28;20611;-70
2023/09/21 00:53:27;;;;;;;0.20;0.20;;;;;;;16.89;64.31;99825.31;5063873;28;20044;-71
2023/09/21 00:56:08;;;;;;;0.20;0.20;;;;;;;16.87;63.90;99822.03;5091906;28;20043;-71
2023/09/21 00:58:36;;;;;;;0.20;0.20;;;;;;;16.84;64.17;99817.97;5072509;28;20495;-71
2023/09/21 01:01:05;;;;;;;0.20;0.20;;;;;;;16.86;64.51;99825.94;5091105;28;20185;-70
2023/09/21 01:03:37;;;;;;;0.20;0.20;;;;;;;16.82;64.17;99827.72;5080129;28;20514;-70
2023/09/21 01:06:11;;;;;;;0.20;0.20;;;;;;;16.59;64.61;99794.59;5077989;28;20108;-71
2023/09/21 01:08:39;;;;;;;0.20;0.20;;;;;;;16.74;64.75;99823.78;5093956;28;20047;-71
2023/09/21 01:11:08;;;;;;;0.20;0.20;;;;;;;16.76;65.02;99827.03;5051474;28;20080;-71
2023/09/21 01:13:36;;;;;;;0.20;0.20;;;;;;;16.72;65.32;99826.84;5043812;28;20101;-71
2023/09/21 01:16:04;;;;;;;0.20;0.20;;;;;;;16.72;65.35;99837.88;5076610;28;20048;-71
2023/09/21 01:18:34;;;;;;;0.20;0.20;;;;;;;16.73;65.66;99841.47;5074999;28;20051;-71
2023/09/21 01:21:06;;;;;;;0.20;0.20;;;;;;;16.72;65.60;99845.34;5102389;28;20052;-71
2023/09/21 01:23:42;;;;;;;0.20;0.20;;;;;;;16.68;65.77;99842.41;5096245;28;20074;-71
2023/09/21 01:26:08;;;;;;;0.20;0.20;;;;;;;16.64;66.31;99838.66;5055307;28;20044;-70
2023/09/21 01:28:34;;;;;;;0.10;0.10;;;;;;;16.60;66.37;99862.47;5078980;28;20065;-71
2023/09/21 01:31:03;;;;;;;0.10;0.10;;;;;;;16.57;66.65;99850.13;5095416;28;20524;-71
2023/09/21 01:33:29;;;;;;;0.20;0.20;;;;;;;16.55;66.61;99846.06;5074295;28;20052;-71
2023/09/21 01:35:56;;;;;;;0.20;0.20;;;;;;;16.58;67.12;99853.69;5089513;28;20048;-71
2023/09/21 01:38:25;;;;;;;0.20;0.20;;;;;;;16.59;67.13;99852.56;5085442;28;20050;-71
2023/09/21 01:40:53;;;;;;;0.20;0.20;;;;;;;16.52;67.40;99849.44;5062282;28;20078;-71
2023/09/21 01:43:20;;;;;;;0.20;0.20;;;;;;;16.47;67.62;99858.66;5103245;28;20048;-72
2023/09/21 01:45:49;;;;;;;0.20;0.20;;;;;;;16.48;67.78;99856.72;5091816;28;20462;-71
2023/09/21 01:48:20;;;;;;;0.20;0.20;;;;;;;16.43;67.96;99849.38;5102362;28;20445;-71
2023/09/21 01:50:50;;;;;;;0.20;0.20;;;;;;;16.47;67.82;99857.81;5088011;28;20070;-70
2023/09/21 01:53:19;;;;;;;0.20;0.20;;;;;;;16.45;68.26;99856.19;5058387;28;20059;-70
2023/09/21 01:55:47;;;;;;;0.20;0.20;;;;;;;16.45;68.27;99858.97;5064988;28;20613;-71
2023/09/21 01:58:17;;;;;;;0.20;0.20;;;;;;;16.40;68.80;99848.06;5073001;28;20047;-70
2023/09/21 02:00:46;;;;;;;0.20;0.20;;;;;;;16.43;69.02;99857.66;5106360;28;20286;-70
2023/09/21 02:03:14;;;;;;;0.20;0.20;;;;;;;16.44;68.58;99853.78;5095149;28;20138;-70
2023/09/21 02:05:40;;;;;;;;;;;;;;;16.45;69.36;99853.44;5094648;28;20048;-70
2023/09/21 02:08:09;;;;;;;0.20;0.20;;;;;;;16.45;69.30;99858.16;5088548;28;20346;-71
2023/09/21 02:10:38;;;;;;;0.20;0.20;;;;;;;16.41;69.59;99857.97;5077252;28;20522;-71
2023/09/21 02:13:05;;;;;;;0.20;0.20;;;;;;;16.40;69.68;99855.53;5087602;28;20078;-71
2023/09/21 02:15:37;;;;;;;0.10;0.10;;;;;;;16.40;69.56;99855.53;5095091;28;20039;-71
2023/09/21 02:18:05;;;;;;;0.20;0.20;;;;;;;16.36;70.15;99848.97;5058837;28;20089;-71
2023/09/21 02:20:34;;;;;;;0.15;0.15;;;;;;;16.30;70.37;99851.88;5094198;28;20058;-71
2023/09/21 02:23:02;;;;;;;0.20;0.20;;;;;;;16.31;70.34;99849.91;5094934;28;20568;-71
2023/09/21 02:25:38;;;;;;;0.20;0.20;;;;;;;16.27;70.44;99849.75;5080322;28;20511;-70
2023/09/21 02:28:09;;;;;;;0.20;0.20;;;;;;;16.24;70.77;99849.56;5075637;28;20143;-70
2023/09/21 02:30:37;;;;;;;0.20;0.20;;;;;;;16.19;71.38;99849.69;5080018;28;20570;-70
2023/09/21 02:33:07;;;;;;;0.20;0.20;;;;;;;16.18;71.42;99857.13;5083900;28;20054;-70
2023/09/21 02:35:34;;;;;;;0.20;0.20;;;;;;;16.20;71.54;99860.38;5095953;28;20484;-71
2023/09/21 02:38:05;;;;;;;0.20;0.20;;;;;;;16.19;71.76;99867.03;5091010;28;20052;-69
2023/09/21 02:40:31;;;;;;;0.20;0.20;;;;;;;16.19;72.01;99860.72;5080117;28;20320;-70
2023/09/21 02:42:57;;;;;;;0.20;0.20;;;;;;;16.17;71.90;99861.00;5095150;28;20084;-69
2023/09/21 02:45:24;;;;;;;0.20;0.20;;;;;;;16.14;72.33;99864.41;5101345;28;20522;-69
2023/09/21 02:47:54;;;;;;;0.20;0.20;;;;;;;16.12;72.24;99866.66;5100971;28;20043;-69
2023/09/21 02:50:22;;;;;;;0.20;0.20;;;;;;;16.09;72.55;99867.28;5061789;28;20503;-70
2023/09/21 02:52:52;;;;;;;0.20;0.20;;;;;;;16.05;72.81;99863.50;5063700;28;20498;-70
2023/09/21 02:55:20;;;;;;;0.20;0.20;;;;;;;16.00;72.93;99865.25;5076837;28;20063;-70
2023/09/21 02:57:55;;;;;;;0.20;0.20;;;;;;;15.97;73.29;99863.09;5070141;28;20043;-70
2023/09/21 03:03:07;;;;;;;0.20;0.20;;;;;;;15.90;74.27;99872.94;5080297;28;20061;-70
2023/09/21 03:05:38;;;;;;;0.20;0.20;;;;;;;15.86;74.34;99878.19;5080450;28;20047;-70
2023/09/21 03:08:09;;;;;;;0.20;0.20;;;;;;;15.83;74.84;99879.63;5068733;28;20135;-70
2023/09/21 03:10:36;;;;;;;0.13;0.13;;;;;;;15.80;74.94;99890.47;5071605;28;20503;-70
2023/09/21 03:13:04;;;;;;;0.20;0.20;;;;;;;15.78;75.20;99888.00;5077824;28;20050;-70
2023/09/21 03:15:32;;;;;;;0.20;0.20;;;;;;;15.72;75.55;99883.75;5072476;28;20055;-70
2023/09/21 03:17:58;;;;;;;0.10;0.10;;;;;;;15.73;75.72;99890.88;5087603;28;20105;-70
2023/09/21 03:20:34;;;;;;;0.10;0.10;;;;;;;15.72;75.89;99883.75;5074730;28;20047;-69
2023/09/21 03:23:05;;;;;;;0.20;0.20;;;;;;;15.74;76.19;99900.78;5071659;28;20051;-68
2023/09/21 03:25:33;;;;;;;0.20;0.20;;;;;;;15.72;76.30;99900.28;5088420;28;20097;-70
2023/09/21 03:28:10;;;;;;;0.10;0.10;;;;;;;15.76;76.18;99901.28;5097787;28;20055;-69
2023/09/21 03:30:38;;;;;;;0.20;0.20;;;;;;;15.76;76.47;99905.97;5094535;28;20533;-69
2023/09/21 03:33:08;;;;;;;0.20;0.20;;;;;;;15.77;76.57;99905.69;5095499;28;20127;-69
2023/09/21 03:35:37;;;;;;;0.10;0.10;;;;;;;15.79;76.07;99903.44;5098738;28;20047;-70
2023/09/21 03:38:18;;;;;;;0.10;0.10;;;;;;;15.80;76.68;99909.78;5098642;28;20633;-70
2023/09/21 03:40:47;;;;;;;0.13;0.13;;;;;;;15.85;76.62;99898.63;5058683;28;20046;-70
2023/09/21 03:43:15;;;;;;;0.20;0.20;;;;;;;15.90;76.83;99903.25;5068230;28;20055;-69
2023/09/21 03:45:44;;;;;;;0.20;0.20;;;;;;;15.94;76.57;99901.50;5057057;28;20048;-70
2023/09/21 03:48:12;;;;;;;0.20;0.20;;;;;;;15.98;76.76;99908.03;5090520;28;20100;-70
2023/09/21 03:50:42;;;;;;;0.20;0.20;;;;;;;16.01;76.88;99912.94;5066714;28;20044;-70
2023/09/21 03:53:11;;;;;;;0.20;0.20;;;;;;;16.07;76.60;99914.47;5072207;28;20051;-69
2023/09/21 03:55:38;;;;;;;0.20;0.20;;;;;;;16.09;76.69;99911.41;5076119;28;20048;-69
2023/09/21 03:58:06;;;;;;;0.20;0.20;;;;;;;16.09;76.50;99912.19;5077758;28;20044;-70
2023/09/21 04:00:36;;;;;;;0.20;0.20;;;;;;;16.10;76.61;99899.25;5082814;28;20094;-70
2023/09/21 04:03:06;;;;;;;0.20;0.20;;;;;;;16.12;76.82;99913.53;5077045;28;20048;-70
2023/09/21 04:05:36;;;;;;;0.10;0.10;;;;;;;16.09;77.13;99919.69;5074388;28;20074;-70
2023/09/21 04:08:05;;;;;;;0.20;0.20;;;;;;;16.10;77.36;99918.56;5077957;28;20602;-70
2023/09/21 04:10:32;;;;;;;0.20;0.20;;;;;;;16.07;77.90;99919.97;5096559;28;20067;-70
2023/09/21 04:12:59;;;;;;;0.20;0.20;;;;;;;16.12;77.71;99928.13;5093593;28;20043;-71
2023/09/21 04:15:27;;;;;;;0.20;0.20;;;;;;;16.13;77.73;99920.69;5094656;28;20457;-69
2023/09/21 04:17:54;;;;;;;0.20;0.20;;;;;;;16.13;77.83;99928.97;5061668;28;20142;-70
2023/09/21 04:20:21;;;;;;;;;;;;;;;16.09;78.37;99936.22;5073963;28;20044;-70
2023/09/21 04:22:52;;;;;;;0.20;0.20;;;;;;;16.14;77.66;99933.34;5060108;28;19923;-70
2023/09/21 04:25:20;;;;;;;0.20;0.20;;;;;;;16.24;77.55;99930.38;5081895;28;20061;-70
2023/09/21 04:27:49;;;;;;;0.20;0.20;;;;;;;16.33;77.36;99943.41;5098528;28;20040;-70
2023/09/21 04:30:21;;;;;;;0.20;0.20;;;;;;;16.35;77.65;99942.00;5078454;28;20044;-69
2023/09/21 04:32:55;;;;;;;0.20;0.20;;;;;;;16.36;77.24;99940.03;5099548;28;20500;-70
2023/09/21 04:35:23;;;;;;;0.20;0.20;;;;;;;16.37;77.23;99941.66;5074319;28;20522;-70
2023/09/21 04:37:58;;;;;;;0.20;0.20;;;;;;;16.44;77.16;99944.81;5075266;28;20047;-70
2023/09/21 04:40:27;;;;;;;0.20;0.20;;;;;;;16.52;76.83;99946.03;5062592;28;20502;-70
2023/09/21 04:42:54;;;;;;;0.20;0.20;;;;;;;16.54;76.83;99947.34;5077733;28;20537;-70
2023/09/21 04:45:25;;;;;;;0.20;0.20;;;;;;;16.55;76.74;99937.94;5083315;28;20082;-70
2023/09/21 04:48:00;;;;;;;0.20;0.20;;;;;;;16.63;76.85;99949.38;5098092;28;20043;-71
2023/09/21 04:50:28;;;;;;;0.20;0.20;;;;;;;16.68;76.54;99940.94;5083052;28;20039;-70
2023/09/21 04:52:54;;;;;;;0.20;0.20;;;;;;;16.70;76.33;99938.69;5084908;28;20039;-70
2023/09/21 04:55:22;;;;;;;0.20;0.20;;;;;;;16.81;76.06;99950.31;5071188;28;20108;-70
2023/09/21 04:57:51;;;;;;;0.20;0.20;;;;;;;16.74;76.03;99942.47;5086816;28;20372;-70
2023/09/21 05:00:17;;;;;;;0.20;0.20;;;;;;;16.91;75.86;99961.09;5073479;28;20047;-70
2023/09/21 05:02:45;;;;;;;0.20;0.20;;;;;;;16.91;75.75;99968.59;5086357;28;20044;-69
2023/09/21 05:05:15;;;;;;;0.20;0.20;;;;;;;16.87;75.96;99969.22;5072184;28;20044;-69
2023/09/21 05:07:43;;;;;;;0.20;0.20;;;;;;;16.89;75.86;99970.84;5073619;28;20044;-69
2023/09/21 05:10:12;;;;;;;;;;;;;;;16.83;76.21;99975.69;5077384;28;20116;-69
2023/09/21 05:12:38;;;;;;;0.20;0.20;;;;;;;16.83;76.20;99976.47;5100454;28;20116;-72
2023/09/21 05:15:08;;;;;;;0.20;0.20;;;;;;;16.82;76.17;99965.75;5099376;28;20051;-70
2023/09/21 05:17:38;;;;;;;0.20;0.20;;;;;;;16.85;76.09;99976.19;5071891;28;20278;-70
2023/09/21 05:20:06;;;;;;;0.20;0.20;;;;;;;16.82;76.42;99966.56;5097571;28;20514;-70
2023/09/21 05:22:33;;;;;;;0.20;0.20;;;;;;;16.95;75.91;99975.94;5073380;28;20056;-70
2023/09/21 05:25:01;;;;;;;0.20;0.20;;;;;;;16.97;75.45;99970.91;5063579;28;20044;-72
2023/09/21 05:27:32;;;;;;;0.20;0.20;;;;;;;17.10;75.58;99979.50;5081855;28;20052;-72
2023/09/21 05:30:04;;;;;;;0.20;0.20;;;;;;;17.09;75.18;99981.41;5062610;28;20051;-70
2023/09/21 05:32:35;;;;;;;0.20;0.20;;;;;;;17.07;75.60;99982.84;5081164;28;20044;-71
2023/09/21 05:35:02;;;;;;;0.20;0.20;;;;;;;17.01;75.42;99973.88;5045088;28;20059;-70
2023/09/21 05:37:30;;;;;;;0.20;0.20;;;;;;;17.08;75.60;99987.25;5065493;28;20537;-71
2023/09/21 05:39:57;;;;;;;0.20;0.20;;;;;;;16.98;75.73;99980.81;5060145;28;20143;-70
2023/09/21 05:42:23;;;;;;;0.20;0.20;;;;;;;17.05;75.92;99988.72;5047563;28;20050;-71
2023/09/21 05:44:50;;;;;;;0.20;0.20;;;;;;;17.01;75.58;99991.28;5078731;28;20712;-71
2023/09/21 05:47:17;;;;;;;0.20;0.20;;;;;;;17.01;75.71;99991.28;5072633;28;20249;-71
2023/09/21 05:49:44;;;;;;;0.20;0.20;;;;;;;16.99;75.76;99984.41;5095556;28;20054;-69
2023/09/21 05:52:16;;;;;;;0.20;0.20;;;;;;;17.05;75.45;100002.53;5087424;28;20059;-70
2023/09/21 05:54:43;;;;;;;0.20;0.20;;;;;;;17.02;75.89;100005.91;5064323;28;20046;-70
2023/09/21 05:57:10;;;;;;;0.20;0.20;;;;;;;17.01;75.73;99996.78;5071161;28;20055;-70
2023/09/21 05:59:37;;;;;;;0.20;0.20;;;;;;;16.94;75.79;99990.88;5058832;28;20043;-71
2023/09/21 06:02:05;;;;;;;0.20;0.20;;;;;;;17.03;75.97;100002.03;5051463;28;20137;-71
2023/09/21 06:04:34;;;;;;;0.20;0.20;;;;;;;17.04;75.84;100009.19;5096498;28;20075;-72
2023/09/21 06:07:03;;;;;;;0.20;0.20;;;;;;;17.07;76.11;100003.03;5071224;28;20063;-72
2023/09/21 06:09:30;;;;;;;0.20;0.20;;;;;;;17.11;75.86;100003.22;5049077;28;20051;-73
2023/09/21 06:11:57;;;;;;;0.20;0.20;;;;;;;17.10;75.62;99999.63;5080370;28;20089;-72
2023/09/21 06:14:23;;;;;;;0.20;0.20;;;;;;;17.16;75.39;100011.38;5052042;28;20048;-70
2023/09/21 06:16:51;;;;;;;0.20;0.20;;;;;;;17.25;75.51;100009.50;5100491;28;20040;-71
2023/09/21 06:19:18;;;;;;;0.20;0.20;;;;;;;17.31;75.03;100020.41;5082312;28;20107;-70
2023/09/21 06:21:51;;;;;;;0.20;0.20;;;;;;;17.32;75.28;100020.06;5095038;28;20059;-70
2023/09/21 06:24:19;;;;;;;0.20;0.20;;;;;;;17.35;74.50;100018.63;5067454;28;20044;-70
2023/09/21 06:26:47;;;;;;;0.20;0.20;;;;;;;17.35;74.66;100022.22;5092483;28;20052;-71
2023/09/21 06:29:14;;;;;;;0.30;0.30;;;;;;;17.36;74.88;100026.63;5077026;28;20170;-72
2023/09/21 06:31:40;;;;;;;0.30;0.30;;;;;;;17.48;75.01;100025.19;5084037;28;20050;-71
2023/09/21 06:34:07;;;;;;;0.30;0.30;;;;;;;17.62;75.04;100022.38;5068896;28;20073;-72
2023/09/21 06:36:37;;;;;;;0.20;0.20;;;;;;;17.70;74.63;100033.47;5091148;28;20054;-71
2023/09/21 06:39:05;;;;;;;0.20;0.20;;;;;;;17.76;74.31;100027.81;5062429;28;20043;-72
2023/09/21 06:41:33;;;;;;;0.30;0.30;;;;;;;17.79;74.26;100036.28;5097300;28;20108;-72
2023/09/21 06:44:00;;;;;;;0.30;0.30;;;;;;;17.89;73.94;100026.88;5064200;28;20051;-73
2023/09/21 06:46:27;;;;;;;0.20;0.20;;;;;;;17.98;73.68;100032.47;5052453;28;20092;-71
2023/09/21 06:48:54;;;;;;;0.25;0.25;;;;;;;18.10;73.48;100034.63;5097749;28;20109;-71
2023/09/21 06:51:20;;;;;;;0.20;0.20;;;;;;;18.13;72.76;100023.75;5098793;28;20101;-71
2023/09/21 06:53:48;;;;;;;0.30;0.30;;;;;;;18.21;72.73;100027.69;5104278;28;20040;-71
2023/09/21 06:56:16;;;;;;;0.30;0.30;;;;;;;18.21;72.20;100027.69;5052287;28;20075;-71
2023/09/21 06:58:43;;;;;;;0.30;0.30;;;;;;;18.17;72.02;100029.47;5104568;28;20233;-71
2023/09/21 07:01:10;;;;;;;0.30;0.30;;;;;;;18.20;72.48;100036.31;5093881;28;20251;-71
2023/09/21 07:03:36;;;;;;;;;;;;;;;18.18;72.29;100030.28;5097120;28;20039;-71
2023/09/21 07:06:03;;;;;;;0.30;0.30;;;;;;;18.19;71.98;100026.41;5087690;28;19931;-71
2023/09/21 07:08:29;;;;;;;0.30;0.30;;;;;;;18.35;71.57;100016.50;5070062;28;20131;-71
2023/09/21 07:10:55;;;;;;;0.27;0.27;;;;;;;18.48;70.97;100020.28;5088937;28;20086;-72
2023/09/21 07:13:22;;;;;;;0.30;0.30;;;;;;;18.56;70.50;100021.41;5058902;28;20056;-72
2023/09/21 07:15:51;;;;;;;0.30;0.30;;;;;;;18.63;70.43;100023.72;5088757;28;20051;-70
2023/09/21 07:18:20;;;;;;;0.40;0.40;;;;;;;18.66;70.04;100015.59;5088089;28;20047;-71
2023/09/21 07:20:47;;;;;;;0.30;0.30;;;;;;;18.72;69.62;100018.97;5099970;28;20064;-71
2023/09/21 07:23:14;;;;;;;0.30;0.30;;;;;;;18.91;68.80;100021.44;5066525;28;20052;-71
2023/09/21 07:25:40;;;;;;;0.30;0.30;;;;;;;19.10;68.35;100012.00;5087606;28;20040;-71
2023/09/21 07:28:06;;;;;;;0.30;0.30;;;;;;;19.47;67.14;100019.94;5094337;28;20391;-71
2023/09/21 07:30:35;;;;;;;0.40;0.40;;;;;;;19.79;65.22;100007.44;5106451;28;20047;-71
2023/09/21 07:33:04;;;;;;;0.30;0.30;;;;;;;20.23;63.81;100029.47;5085658;28;20745;-71
2023/09/21 07:35:31;;;;;;;0.30;0.30;;;;;;;20.20;63.14;100029.31;5103760;28;20256;-70
2023/09/21 07:37:58;;;;;;;0.30;0.30;;;;;;;20.16;63.39;100029.19;5086930;28;20048;-71
2023/09/21 07:40:24;;;;;;;0.30;0.30;;;;;;;20.08;63.42;100030.03;5087994;28;20044;-71
2023/09/21 07:42:51;;;;;;;0.30;0.30;;;;;;;20.06;63.23;100035.94;5086013;28;20074;-70
2023/09/21 07:45:22;;;;;;;0.30;0.30;;;;;;;20.10;63.06;100034.13;5069336;28;20059;-70
2023/09/21 07:47:49;;;;;;;0.30;0.30;;;;;;;20.10;62.99;100034.13;5049894;28;20048;-70
2023/09/21 07:50:23;;;;;;;0.30;0.30;;;;;;;20.14;62.23;100039.00;5072230;28;20048;-70
2023/09/21 07:52:49;;;;;;;0.30;0.30;;;;;;;20.09;62.43;100031.66;5107127;28;20080;-71
2023/09/21 07:55:16;;;;;;;0.40;0.40;;;;;;;20.14;62.02;100033.44;5086078;28;20047;-71
2023/09/21 07:57:47;;;;;;;0.30;0.30;;;;;;;20.05;62.58;100025.97;5100604;28;20047;-71
2023/09/21 08:00:14;;;;;;;0.30;0.30;;;;;;;20.22;62.02;100032.59;5083028;28;20435;-72
2023/09/21 08:02:41;;;;;;;;;;;;;;;20.12;61.82;100036.53;5086929;28;20074;-72
2023/09/21 08:05:09;;;;;;;0.30;0.30;;;;;;;19.99;62.24;100032.84;5086613;28;20344;-71
2023/09/21 08:07:37;;;;;;;0.30;0.30;;;;;;;19.82;61.87;100034.53;5106534;28;20051;-71
2023/09/21 08:10:05;;;;;;;0.30;0.30;;;;;;;19.68;62.69;100043.06;5105021;28;20023;-70
2023/09/21 08:12:36;;;;;;;0.30;0.30;;;;;;;19.68;63.12;100033.91;5072542;28;20863;-70
2023/09/21 08:15:06;;;;;;;0.30;0.30;;;;;;;19.58;63.34;100040.63;5088566;28;20483;-70
2023/09/21 08:17:33;;;;;;;0.30;0.30;;;;;;;19.50;63.98;100047.81;5086407;28;20043;-70
2023/09/21 08:20:03;;;;;;;0.30;0.30;;;;;;;19.46;63.78;100051.56;5104484;28;20047;-70
2023/09/21 08:22:30;;;;;;;0.30;0.30;;;;;;;19.39;64.13;100047.38;5089271;28;20079;-72
2023/09/21 08:24:58;;;;;;;0.27;0.27;;;;;;;19.34;64.19;100043.94;5105156;28;20043;-70
2023/09/21 08:27:25;;;;;;;0.30;0.30;;;;;;;19.29;64.50;100061.56;5100225;28;20048;-70
2023/09/21 08:29:51;;;;;;;0.30;0.30;;;;;;;19.29;64.38;100060.75;5067933;28;20139;-70
2023/09/21 08:32:18;;;;;;;0.30;0.30;;;;;;;19.39;64.18;100052.06;5051620;28;20138;-70
2023/09/21 08:34:44;;;;;;;0.30;0.30;;;;;;;19.56;64.12;100056.78;5071204;28;20039;-72
2023/09/21 08:37:10;;;;;;;0.30;0.30;;;;;;;19.73;63.79;100055.13;5094192;28;20405;-72
2023/09/21 08:39:37;;;;;;;0.30;0.30;;;;;;;19.80;62.69;100053.47;5077601;28;20060;-72
2023/09/21 08:42:05;;;;;;;0.30;0.30;;;;;;;19.83;62.25;100057.53;5088685;28;21009;-72
2023/09/21 08:44:32;;;;;;;0.30;0.30;;;;;;;19.82;61.53;100056.72;5085053;28;20052;-70
2023/09/21 08:47:00;;;;;;;0.30;0.30;;;;;;;19.69;61.81;100039.13;5087572;28;20135;-71
2023/09/21 08:49:28;;;;;;;0.75;0.30;;;;;;;19.99;61.47;100060.59;5050798;28;20101;-70
2023/09/21 08:51:58;;;;;;;0.30;0.30;;;;;;;20.26;60.19;100073.22;5067864;28;20075;-70
2023/09/21 08:54:24;;;;;;;0.35;0.32;;;;;;;;;;5067607;28;20055;-70
2023/09/21 08:56:55;;;;;;;0.30;0.30;;;;;;;20.35;59.04;100067.63;5068099;28;20052;-70
2023/09/21 08:59:24;;;;;;;0.30;0.30;;;;;;;20.49;58.88;100081.28;5067304;28;20513;-70
2023/09/21 09:01:51;;;;;;;0.30;0.30;;;;;;;20.53;58.40;100081.44;5035962;28;20044;-70
2023/09/21 09:04:19;;;;;;;0.30;0.30;;;;;;;20.51;58.11;100076.19;5104789;28;20057;-70
2023/09/21 09:06:46;;;;;;;0.30;0.30;;;;;;;20.47;58.77;100079.97;5083646;28;20071;-71
2023/09/21 09:09:13;;;;;;;0.30;0.30;;;;;;;20.47;58.83;100072.47;5103717;28;20075;-71
2023/09/21 09:11:42;;;;;;;0.30;0.30;;;;;;;20.51;58.37;100078.97;5094407;28;20052;-70
2023/09/21 09:14:13;;;;;;;0.30;0.30;;;;;;;20.53;58.77;100082.22;5102900;28;20042;-70
2023/09/21 09:16:41;;;;;;;0.28;0.28;;;;;;;20.70;58.21;100074.94;5066505;28;20055;-70
2023/09/21 09:19:08;;;;;;;0.30;0.30;;;;;;;20.75;58.01;100069.16;5081082;28;20068;-70
2023/09/21 09:21:35;;;;;;;0.22;0.22;;;;;;;20.79;57.97;100078.47;5101554;28;20051;-70
2023/09/21 09:24:02;;;;;;;0.20;0.20;;;;;;;20.81;57.80;100070.66;5085364;28;20454;-70
2023/09/21 09:26:29;;;;;;;0.30;0.30;;;;;;;20.74;58.37;100072.31;5100317;28;20120;-70
2023/09/21 09:29:03;;;;;;;0.30;0.30;;;;;;;20.59;58.33;100068.97;5066482;28;20135;-70
2023/09/21 09:31:29;;;;;;;0.30;0.30;;;;;;;20.54;58.42;100072.75;5082269;28;20147;-70
2023/09/21 09:33:59;;;;;;;0.30;0.30;;;;;;;20.56;58.32;100077.97;5049872;28;20071;-72
2023/09/21 09:36:25;;;;;;;0.30;0.30;;;;;;;20.57;58.03;100078.78;5066668;28;20534;-71
2023/09/21 09:38:52;;;;;;;0.20;0.20;;;;;;;20.51;58.47;100076.19;5065413;28;20053;-71
2023/09/21 09:41:21;;;;;;;0.30;0.30;;;;;;;20.57;58.13;100071.25;5067126;28;20043;-72
2023/09/21 09:43:51;;;;;;;0.30;0.30;;;;;;;20.48;57.58;100076.88;5086351;28;20329;-70
2023/09/21 09:46:19;;;;;;;0.45;0.30;;;;;;;20.35;58.04;100081.50;5069278;28;20054;-71
2023/09/21 09:48:47;;;;;;;0.30;0.30;;;;;;;20.27;58.41;100082.38;5096607;28;20047;-70
2023/09/21 09:51:25;;;;;;;0.30;0.30;;;;;;;20.21;58.67;100072.56;5084947;28;20072;-72
2023/09/21 09:53:53;;;;;;;0.30;0.30;;;;;;;20.14;58.63;100081.44;5099653;28;20055;-72
2023/09/21 09:56:22;;;;;;;0.30;0.30;;;;;;;20.01;59.33;100090.81;5088979;28;20056;-72
2023/09/21 09:58:50;;;;;;;0.30;0.30;;;;;;;19.88;59.24;100089.81;5089119;28;20048;-72
2023/09/21 10:01:17;;;;;;;;;;;;;;;19.89;59.49;100097.81;5086411;28;20062;-72
2023/09/21 10:03:50;;;;;;;0.32;0.30;;;;;;;19.87;58.88;100094.56;5066395;28;19946;-71
2023/09/21 10:06:19;;;;;;;0.30;0.30;;;;;;;19.96;59.49;100097.34;5070627;28;20423;-71
2023/09/21 10:08:46;;;;;;;0.20;0.20;;;;;;;20.14;59.09;100092.56;5071117;28;20514;-71
2023/09/21 10:11:15;;;;;;;0.30;0.30;;;;;;;20.35;58.34;100086.25;5088870;28;20118;-72
2023/09/21 10:13:51;;;;;;;0.30;0.30;;;;;;;20.53;58.10;100092.53;5083050;28;20040;-70
2023/09/21 10:16:19;;;;;;;0.30;0.30;;;;;;;20.53;58.03;100093.34;5111783;28;20036;-70
2023/09/21 10:18:51;;;;;;;0.30;0.30;;;;;;;20.62;58.05;100104.38;5107769;28;20305;-70
2023/09/21 10:21:30;;;;;;;0.30;0.30;;;;;;;20.83;57.82;100095.28;5086891;28;20104;-72
2023/09/21 10:24:02;;;;;;;0.30;0.30;;;;;;;20.91;57.18;100097.22;5084663;28;20052;-70
2023/09/21 10:26:33;;;;;;;0.30;0.30;;;;;;;20.79;57.78;100099.88;5102893;28;20051;-71
2023/09/21 10:29:04;;;;;;;0.30;0.30;;;;;;;20.55;58.66;100104.91;5089739;28;20047;-71
2023/09/21 10:31:32;;;;;;;0.20;0.20;;;;;;;20.28;59.47;100103.44;5084833;28;20678;-72
2023/09/21 10:34:07;;;;;;;0.20;0.20;;;;;;;20.06;60.47;100097.00;5085757;28;20098;-70
2023/09/21 10:36:38;;;;;;;0.28;0.28;;;;;;;19.98;61.21;100095.03;5070241;28;20044;-69
2023/09/21 10:39:24;;;;;;;0.30;0.30;;;;;;;19.97;61.14;100087.88;5069774;28;20048;-70
2023/09/21 10:41:53;;;;;;;0.20;0.20;;;;;;;19.91;61.35;100094.72;5084563;28;20132;-71
2023/09/21 10:44:56;;;;;;;0.30;0.30;;;;;;;19.83;61.89;100101.94;5089689;28;20051;-72
2023/09/21 10:47:47;;;;;;;0.20;0.20;;;;;;;19.72;62.00;100097.88;5086977;28;20309;-70
2023/09/21 10:50:16;;;;;;;0.20;0.20;;;;;;;19.59;62.52;100100.50;5108964;28;20047;-72
2023/09/21 10:52:45;;;;;;;0.30;0.30;;;;;;;19.51;62.61;100093.00;5090299;28;20044;-71
2023/09/21 10:55:18;;;;;;;0.28;0.28;;;;;;;19.44;63.15;100095.47;5074922;28;20120;-71
2023/09/21 10:57:47;;;;;;;0.30;0.30;;;;;;;19.38;63.47;100098.41;5093000;28;20500;-70
2023/09/21 11:00:20;;;;;;;0.30;0.30;;;;;;;19.50;63.24;100094.97;5089651;28;20074;-70
2023/09/21 11:02:49;;;;;;;0.47;0.30;;;;;;;19.73;62.17;100091.16;5087586;28;20052;-70
2023/09/21 11:05:17;;;;;;;0.30;0.30;;;;;;;20.01;61.71;100088.81;5073012;28;20147;-70
2023/09/21 11:07:47;;;;;;;0.30;0.30;;;;;;;20.26;60.70;100098.19;5088455;28;20483;-70
2023/09/21 11:10:16;;;;;;;0.30;0.30;;;;;;;20.26;60.31;100084.31;5039004;28;20414;-70
2023/09/21 11:12:44;;;;;;;0.30;0.30;;;;;;;20.22;60.42;100088.13;5088048;28;20056;-71
2023/09/21 11:15:12;;;;;;;0.30;0.30;;;;;;;20.22;60.75;100100.00;5088525;28;20044;-70
2023/09/21 11:17:41;;;;;;;0.30;0.30;;;;;;;20.17;60.68;100102.16;5091468;28;20206;-72
2023/09/21 11:20:08;;;;;;;0.30;0.30;;;;;;;20.15;60.98;100096.13;5079568;28;20083;-70
2023/09/21 11:22:35;;;;;;;0.30;0.30;;;;;;;20.17;60.65;100093.81;5089123;28;20059;-70
2023/09/21 11:25:03;;;;;;;0.30;0.30;;;;;;;20.23;60.70;100092.50;5092019;28;20051;-70
2023/09/21 11:27:30;;;;;;;0.30;0.30;;;;;;;20.37;60.42;100103.38;5102241;28;20051;-72
2023/09/21 11:29:57;;;;;;;0.30;0.30;;;;;;;20.37;60.13;100097.81;5081851;28;20896;-72
2023/09/21 11:32:24;;;;;;;0.30;0.30;;;;;;;20.37;60.13;100103.38;5107732;28;20055;-72
2023/09/21 11:34:57;;;;;;;0.30;0.30;;;;;;;20.32;59.98;100089.69;5091018;28;20044;-72
2023/09/21 11:37:28;;;;;;;0.30;0.30;;;;;;;20.45;59.17;100105.31;5091260;28;20044;-72
2023/09/21 11:39:55;;;;;;;0.30;0.30;;;;;;;20.55;59.34;100098.56;5087444;28;20183;-73
2023/09/21 11:42:24;;;;;;;0.30;0.30;;;;;;;20.64;59.04;100095.72;5072668;28;20593;-72